sensor_id;sensor_type;location;lat;lon;timestamp;pressure;altitude;pressure_sealevel;temperature;humidity
71465;BME280;59274;49.874;9.154;2023-05-11T00:01:41;100103.13;;;10.71;100.00
71465;BME280;59274;49.874;9.154;2023-05-11T00:04:07;100095.78;;;10.75;100.00
71465;BME280;59274;49.874;9.154;2023-05-11T00:06:33;100103.19;;;10.78;100.00
71465;BME280;59274;49.874;9.154;2023-05-11T00:08:58;100104.75;;;10.79;100.00
71465;BME280;59274;49.874;9.154;2023-05-11T00:11:23;100097.72;;;10.75;100.00
71465;BME280;59274;49.874;9.154;2023-05-11T00:13:49;100098.50;;;10.75;100.00
71465;BME280;59274;49.874;9.154;2023-05-11T00:16:14;100094.25;;;10.78;100.00
71465;BME280;59274;49.874;9.154;2023-05-11T00:18:40;100102.41;;;10.78;100.00
71465;BME280;59274;49.874;9.154;2023-05-11T00:21:06;100098.06;;;10.70;100.00
71465;BME280;59274;49.874;9.154;2023-05-11T00:23:31;100096.06;;;10.63;100.00
71465;BME280;59274;49.874;9.154;2023-05-11T00:25:57;100097.66;;;10.68;100.00
71465;BME280;59274;49.874;9.154;2023-05-11T00:28:22;100098.41;;;10.65;100.00
71465;BME280;59274;49.874;9.154;2023-05-11T00:30:48;100103.44;;;10.63;100.00
71465;BME280;59274;49.874;9.154;2023-05-11T00:33:13;100101.53;;;10.67;100.00
71465;BME280;59274;49.874;9.154;2023-05-11T00:35:39;100095.31;;;10.66;100.00
71465;BME280;59274;49.874;9.154;2023-05-11T00:38:07;100092.16;;;10.57;100.00
71465;BME280;59274;49.874;9.154;2023-05-11T00:40:33;100097.22;;;10.62;100.00
71465;BME280;59274;49.874;9.154;2023-05-11T00:42:58;100078.94;;;10.55;100.00
71465;BME280;59274;49.874;9.154;2023-05-11T00:45:24;100078.19;;;10.58;100.00
71465;BME280;59274;49.874;9.154;2023-05-11T00:47:50;100080.88;;;10.55;100.00
71465;BME280;59274;49.874;9.154;2023-05-11T00:50:15;100085.09;;;10.52;100.00
71465;BME280;59274;49.874;9.154;2023-05-11T00:52:42;100080.50;;;10.56;100.00
71465;BME280;59274;49.874;9.154;2023-05-11T00:55:09;100081.31;;;10.60;100.00
71465;BME280;59274;49.874;9.154;2023-05-11T00:57:37;100077.81;;;10.60;100.00
71465;BME280;59274;49.874;9.154;2023-05-11T01:00:03;100072.38;;;10.60;100.00
71465;BME280;59274;49.874;9.154;2023-05-11T01:02:29;100066.63;;;10.65;100.00
71465;BME280;59274;49.874;9.154;2023-05-11T01:04:55;100072.00;;;10.58;100.00
71465;BME280;59274;49.874;9.154;2023-05-11T01:07:26;100063.13;;;10.65;100.00
71465;BME280;59274;49.874;9.154;2023-05-11T01:18:00;100075.94;;;10.68;100.00
71465;BME280;59274;49.874;9.154;2023-05-11T01:20:29;100086.34;;;10.58;100.00
71465;BME280;59274;49.874;9.154;2023-05-11T01:28:22;100078.56;;;10.57;100.00
71465;BME280;59274;49.874;9.154;2023-05-11T01:30:56;100081.25;;;10.53;100.00
71465;BME280;59274;49.874;9.154;2023-05-11T01:33:30;100076.22;;;10.55;100.00
71465;BME280;59274;49.874;9.154;2023-05-11T01:36:01;100076.56;;;10.50;100.00
71465;BME280;59274;49.874;9.154;2023-05-11T01:38:32;100081.56;;;10.45;100.00
71465;BME280;59274;49.874;9.154;2023-05-11T01:40:59;100076.53;;;10.43;100.00
71465;BME280;59274;49.874;9.154;2023-05-11T01:43:26;100071.03;;;10.40;100.00
71465;BME280;59274;49.874;9.154;2023-05-11T01:45:56;100071.47;;;10.42;100.00
71465;BME280;59274;49.874;9.154;2023-05-11T01:48:24;100076.53;;;10.43;100.00
71465;BME280;59274;49.874;9.154;2023-05-11T01:50:53;100078.03;;;10.41;100.00
71465;BME280;59274;49.874;9.154;2023-05-11T01:53:21;100076.16;;;10.48;100.00
71465;BME280;59274;49.874;9.154;2023-05-11T01:55:49;100085.09;;;10.49;100.00
71465;BME280;59274;49.874;9.154;2023-05-11T01:58:15;100078.09;;;10.44;100.00
71465;BME280;59274;49.874;9.154;2023-05-11T02:00:43;100085.03;;;10.45;100.00
71465;BME280;59274;49.874;9.154;2023-05-11T02:03:09;100079.66;;;10.49;100.00
71465;BME280;59274;49.874;9.154;2023-05-11T02:05:36;100086.22;;;10.44;100.00
71465;BME280;59274;49.874;9.154;2023-05-11T02:08:04;100073.41;;;10.45;100.00
71465;BME280;59274;49.874;9.154;2023-05-11T02:10:31;100081.16;;;10.43;100.00
71465;BME280;59274;49.874;9.154;2023-05-11T02:12:58;100085.75;;;10.39;100.00
71465;BME280;59274;49.874;9.154;2023-05-11T02:15:24;100084.97;;;10.38;100.00
71465;BME280;59274;49.874;9.154;2023-05-11T02:17:52;100081.88;;;10.36;100.00
71465;BME280;59274;49.874;9.154;2023-05-11T02:20:19;100086.47;;;10.32;100.00
71465;BME280;59274;49.874;9.154;2023-05-11T02:22:45;100092.34;;;10.38;100.00
71465;BME280;59274;49.874;9.154;2023-05-11T02:25:11;100086.91;;;10.38;100.00
71465;BME280;59274;49.874;9.154;2023-05-11T02:27:37;100081.84;;;10.33;100.00
71465;BME280;59274;49.874;9.154;2023-05-11T02:30:04;100084.84;;;10.24;100.00
71465;BME280;59274;49.874;9.154;2023-05-11T02:32:32;100084.84;;;10.20;100.00
71465;BME280;59274;49.874;9.154;2023-05-11T02:35:00;100080.91;;;10.18;100.00
71465;BME280;59274;49.874;9.154;2023-05-11T02:37:29;100082.00;;;10.13;100.00
71465;BME280;59274;49.874;9.154;2023-05-11T02:40:03;100087.41;;;10.10;100.00
71465;BME280;59274;49.874;9.154;2023-05-11T02:42:35;100088.09;;;10.03;100.00
71465;BME280;59274;49.874;9.154;2023-05-11T02:45:07;100088.16;;;10.07;100.00
71465;BME280;59274;49.874;9.154;2023-05-11T02:47:47;100082.28;;;10.01;100.00
71465;BME280;59274;49.874;9.154;2023-05-11T02:50:17;100082.31;;;10.05;100.00
71465;BME280;59274;49.874;9.154;2023-05-11T02:52:45;100074.94;;;10.05;100.00
71465;BME280;59274;49.874;9.154;2023-05-11T02:55:14;100079.19;;;10.03;100.00
71465;BME280;59274;49.874;9.154;2023-05-11T02:57:42;100079.56;;;10.01;100.00
71465;BME280;59274;49.874;9.154;2023-05-11T03:00:09;100094.28;;;10.00;100.00
71465;BME280;59274;49.874;9.154;2023-05-11T03:02:35;100083.75;;;9.95;100.00
71465;BME280;59274;49.874;9.154;2023-05-11T03:05:00;100083.28;;;9.86;100.00
71465;BME280;59274;49.874;9.154;2023-05-11T03:07:26;100084.78;;;9.83;100.00
71465;BME280;59274;49.874;9.154;2023-05-11T03:09:51;100085.94;;;9.82;100.00
71465;BME280;59274;49.874;9.154;2023-05-11T03:12:17;100086.38;;;9.85;100.00
71465;BME280;59274;49.874;9.154;2023-05-11T03:14:43;100089.00;;;9.77;100.00
71465;BME280;59274;49.874;9.154;2023-05-11T03:17:11;100086.72;;;9.83;100.00
71465;BME280;59274;49.874;9.154;2023-05-11T03:19:37;100087.88;;;9.82;100.00
71465;BME280;59274;49.874;9.154;2023-05-11T03:22:03;100092.03;;;9.72;100.00
71465;BME280;59274;49.874;9.154;2023-05-11T03:24:30;100086.63;;;9.72;100.00
71465;BME280;59274;49.874;9.154;2023-05-11T03:26:56;100088.56;;;9.75;100.00
71465;BME280;59274;49.874;9.154;2023-05-11T03:29:24;100087.41;;;9.73;100.00
71465;BME280;59274;49.874;9.154;2023-05-11T03:31:49;100089.41;;;9.79;100.00
71465;BME280;59274;49.874;9.154;2023-05-11T03:34:15;100089.72;;;9.74;100.00
71465;BME280;59274;49.874;9.154;2023-05-11T03:36:41;100085.88;;;9.75;100.00
71465;BME280;59274;49.874;9.154;2023-05-11T03:39:10;100089.69;;;9.71;100.00
71465;BME280;59274;49.874;9.154;2023-05-11T03:41:38;100085.41;;;9.70;100.00
71465;BME280;59274;49.874;9.154;2023-05-11T03:44:04;100086.19;;;9.70;100.00
71465;BME280;59274;49.874;9.154;2023-05-11T03:46:31;100089.34;;;9.76;100.00
71465;BME280;59274;49.874;9.154;2023-05-11T03:48:58;100085.06;;;9.71;100.00
71465;BME280;59274;49.874;9.154;2023-05-11T03:51:23;100085.06;;;9.71;100.00
71465;BME280;59274;49.874;9.154;2023-05-11T03:53:49;100076.91;;;9.71;100.00
71465;BME280;59274;49.874;9.154;2023-05-11T03:56:15;100086.66;;;9.76;100.00
71465;BME280;59274;49.874;9.154;2023-05-11T03:58:40;100084.38;;;9.81;100.00
71465;BME280;59274;49.874;9.154;2023-05-11T04:01:07;100079.78;;;9.86;100.00
71465;BME280;59274;49.874;9.154;2023-05-11T04:03:46;100078.09;;;9.74;100.00
71465;BME280;59274;49.874;9.154;2023-05-11T04:06:12;100077.38;;;9.80;100.00
71465;BME280;59274;49.874;9.154;2023-05-11T04:08:38;100078.16;;;9.81;100.00
71465;BME280;59274;49.874;9.154;2023-05-11T04:11:03;100081.34;;;9.87;100.00
71465;BME280;59274;49.874;9.154;2023-05-11T04:13:29;100084.47;;;9.89;100.00
71465;BME280;59274;49.874;9.154;2023-05-11T04:15:54;100083.69;;;9.88;100.00
71465;BME280;59274;49.874;9.154;2023-05-11T04:18:19;100081.38;;;9.90;100.00
71465;BME280;59274;49.874;9.154;2023-05-11T04:20:45;100084.53;;;9.96;100.00
71465;BME280;59274;49.874;9.154;2023-05-11T04:23:10;100084.94;;;9.94;100.00
71465;BME280;59274;49.874;9.154;2023-05-11T04:25:36;100077.19;;;9.96;100.00
71465;BME280;59274;49.874;9.154;2023-05-11T04:28:01;100086.47;;;9.95;100.00
71465;BME280;59274;49.874;9.154;2023-05-11T04:30:26;100082.25;;;9.98;100.00
71465;BME280;59274;49.874;9.154;2023-05-11T04:32:52;100080.31;;;10.02;100.00
71465;BME280;59274;49.874;9.154;2023-05-11T04:35:17;100086.59;;;10.06;100.00
71465;BME280;59274;49.874;9.154;2023-05-11T04:37:43;100087.31;;;10.03;100.00
71465;BME280;59274;49.874;9.154;2023-05-11T04:40:08;100077.75;;;10.12;100.00
71465;BME280;59274;49.874;9.154;2023-05-11T04:42:34;100081.22;;;10.13;100.00
71465;BME280;59274;49.874;9.154;2023-05-11T04:44:59;100092.19;;;10.20;100.00
71465;BME280;59274;49.874;9.154;2023-05-11T04:47:25;100085.25;;;10.26;100.00
71465;BME280;59274;49.874;9.154;2023-05-11T04:49:50;100085.75;;;10.35;100.00
71465;BME280;59274;49.874;9.154;2023-05-11T04:52:16;100093.13;;;10.35;100.00
71465;BME280;59274;49.874;9.154;2023-05-11T04:54:41;100096.66;;;10.42;100.00
71465;BME280;59274;49.874;9.154;2023-05-11T04:57:06;100099.03;;;10.44;100.00
71465;BME280;59274;49.874;9.154;2023-05-11T04:59:32;100098.66;;;10.49;100.00
71465;BME280;59274;49.874;9.154;2023-05-11T05:01:57;100098.69;;;10.52;100.00
71465;BME280;59274;49.874;9.154;2023-05-11T05:04:23;100098.31;;;10.50;100.00
71465;BME280;59274;49.874;9.154;2023-05-11T05:06:48;100099.88;;;10.55;100.00
71465;BME280;59274;49.874;9.154;2023-05-11T05:09:14;100099.88;;;10.55;100.00
71465;BME280;59274;49.874;9.154;2023-05-11T05:11:39;100099.94;;;10.62;100.00
71465;BME280;59274;49.874;9.154;2023-05-11T05:14:04;100108.13;;;10.66;100.00
71465;BME280;59274;49.874;9.154;2023-05-11T05:16:30;100098.06;;;10.73;100.00
71465;BME280;59274;49.874;9.154;2023-05-11T05:18:55;100102.75;;;10.73;100.00
71465;BME280;59274;49.874;9.154;2023-05-11T05:21:21;100103.94;;;10.75;100.00
71465;BME280;59274;49.874;9.154;2023-05-11T05:23:46;100110.56;;;10.78;100.00
71465;BME280;59274;49.874;9.154;2023-05-11T05:26:11;100098.53;;;10.79;100.00
71465;BME280;59274;49.874;9.154;2023-05-11T05:28:37;100103.72;;;10.98;100.00
71465;BME280;59274;49.874;9.154;2023-05-11T05:31:03;100114.59;;;10.98;100.00
71465;BME280;59274;49.874;9.154;2023-05-11T05:33:28;100118.50;;;11.01;100.00
71465;BME280;59274;49.874;9.154;2023-05-11T05:35:53;100116.63;;;11.12;100.00
71465;BME280;59274;49.874;9.154;2023-05-11T05:38:19;100116.97;;;11.10;100.00
71465;BME280;59274;49.874;9.154;2023-05-11T05:40:44;100125.22;;;11.21;100.00
71465;BME280;59274;49.874;9.154;2023-05-11T05:43:10;100118.22;;;11.20;100.00
71465;BME280;59274;49.874;9.154;2023-05-11T05:45:38;100118.28;;;11.30;100.00
71465;BME280;59274;49.874;9.154;2023-05-11T05:48:04;100118.28;;;11.30;100.00
71465;BME280;59274;49.874;9.154;2023-05-11T05:50:31;100122.56;;;11.31;100.00
71465;BME280;59274;49.874;9.154;2023-05-11T05:52:57;100118.69;;;11.32;100.00
71465;BME280;59274;49.874;9.154;2023-05-11T05:55:22;100122.22;;;11.40;100.00
71465;BME280;59274;49.874;9.154;2023-05-11T05:57:48;100121.47;;;11.47;100.00
71465;BME280;59274;49.874;9.154;2023-05-11T06:00:14;100125.06;;;11.58;100.00
71465;BME280;59274;49.874;9.154;2023-05-11T06:02:40;100134.03;;;11.69;100.00
71465;BME280;59274;49.874;9.154;2023-05-11T06:05:06;100131.31;;;11.69;100.00
71465;BME280;59274;49.874;9.154;2023-05-11T06:07:31;100129.84;;;11.79;100.00
71465;BME280;59274;49.874;9.154;2023-05-11T06:09:58;100137.22;;;11.78;100.00
71465;BME280;59274;49.874;9.154;2023-05-11T06:12:23;100135.69;;;11.84;100.00
71465;BME280;59274;49.874;9.154;2023-05-11T06:14:48;100133.38;;;11.93;100.00
71465;BME280;59274;49.874;9.154;2023-05-11T06:17:15;100144.66;;;11.95;100.00
71465;BME280;59274;49.874;9.154;2023-05-11T06:19:40;100144.31;;;12.07;100.00
71465;BME280;59274;49.874;9.154;2023-05-11T06:22:06;100138.88;;;12.11;100.00
71465;BME280;59274;49.874;9.154;2023-05-11T06:24:32;100143.59;;;12.28;100.00
71465;BME280;59274;49.874;9.154;2023-05-11T06:26:57;100144.75;;;12.31;100.00
71465;BME280;59274;49.874;9.154;2023-05-11T06:29:23;100145.56;;;12.35;100.00
71465;BME280;59274;49.874;9.154;2023-05-11T06:31:48;100141.66;;;12.32;100.00
71465;BME280;59274;49.874;9.154;2023-05-11T06:34:18;100141.28;;;12.37;100.00
71465;BME280;59274;49.874;9.154;2023-05-11T06:36:44;100144.41;;;12.53;100.00
71465;BME280;59274;49.874;9.154;2023-05-11T06:39:09;100144.81;;;12.55;100.00
71465;BME280;59274;49.874;9.154;2023-05-11T06:41:35;100143.22;;;12.51;100.00
71465;BME280;59274;49.874;9.154;2023-05-11T06:44:00;100136.66;;;12.63;100.00
71465;BME280;59274;49.874;9.154;2023-05-11T06:46:26;100141.31;;;12.73;100.00
71465;BME280;59274;49.874;9.154;2023-05-11T06:48:51;100139.75;;;12.82;100.00
71465;BME280;59274;49.874;9.154;2023-05-11T06:51:17;100130.81;;;12.78;100.00
71465;BME280;59274;49.874;9.154;2023-05-11T06:53:42;100132.75;;;12.81;100.00
71465;BME280;59274;49.874;9.154;2023-05-11T06:56:07;100126.53;;;13.06;100.00
71465;BME280;59274;49.874;9.154;2023-05-11T06:58:33;100137.44;;;12.91;100.00
71465;BME280;59274;49.874;9.154;2023-05-11T07:00:58;100133.91;;;12.87;100.00
71465;BME280;59274;49.874;9.154;2023-05-11T07:03:24;100135.88;;;13.05;100.00
71465;BME280;59274;49.874;9.154;2023-05-11T07:05:49;100131.63;;;13.14;100.00
71465;BME280;59274;49.874;9.154;2023-05-11T07:08:14;100132.75;;;13.24;100.00
71465;BME280;59274;49.874;9.154;2023-05-11T07:10:40;100135.44;;;13.42;100.00
71465;BME280;59274;49.874;9.154;2023-05-11T07:13:06;100140.50;;;13.36;100.00
71465;BME280;59274;49.874;9.154;2023-05-11T07:15:32;100143.63;;;13.45;100.00
71465;BME280;59274;49.874;9.154;2023-05-11T07:17:57;100150.59;;;13.60;100.00
71465;BME280;59274;49.874;9.154;2023-05-11T07:20:23;100144.38;;;13.56;100.00
71465;BME280;59274;49.874;9.154;2023-05-11T07:22:48;100149.06;;;13.49;100.00
71465;BME280;59274;49.874;9.154;2023-05-11T07:25:14;100149.00;;;13.73;100.00
71465;BME280;59274;49.874;9.154;2023-05-11T07:27:39;100155.22;;;13.78;100.00
71465;BME280;59274;49.874;9.154;2023-05-11T07:30:05;100145.88;;;13.75;100.00
71465;BME280;59274;49.874;9.154;2023-05-11T07:32:31;100157.56;;;13.76;100.00
71465;BME280;59274;49.874;9.154;2023-05-11T07:34:56;100150.50;;;13.89;100.00
71465;BME280;59274;49.874;9.154;2023-05-11T07:37:24;100150.50;;;13.89;100.00
71465;BME280;59274;49.874;9.154;2023-05-11T07:39:50;100149.72;;;13.88;100.00
71465;BME280;59274;49.874;9.154;2023-05-11T07:42:15;100145.03;;;13.89;100.00
71465;BME280;59274;49.874;9.154;2023-05-11T07:44:41;100147.44;;;13.76;100.00
71465;BME280;59274;49.874;9.154;2023-05-11T07:47:06;100145.00;;;13.96;100.00
71465;BME280;59274;49.874;9.154;2023-05-11T07:49:32;100149.63;;;14.13;100.00
71465;BME280;59274;49.874;9.154;2023-05-11T07:51:57;100158.50;;;14.28;100.00
71465;BME280;59274;49.874;9.154;2023-05-11T07:54:23;100164.31;;;14.33;100.00
71465;BME280;59274;49.874;9.154;2023-05-11T07:56:49;100151.06;;;14.39;100.00
71465;BME280;59274;49.874;9.154;2023-05-11T07:59:14;100157.72;;;14.27;100.00
71465;BME280;59274;49.874;9.154;2023-05-11T08:01:40;100145.69;;;14.18;100.00
71465;BME280;59274;49.874;9.154;2023-05-11T08:04:05;100148.44;;;14.07;100.00
71465;BME280;59274;49.874;9.154;2023-05-11T08:06:31;100147.78;;;13.82;100.00
71465;BME280;59274;49.874;9.154;2023-05-11T08:08:56;100147.72;;;13.99;100.00
71465;BME280;59274;49.874;9.154;2023-05-11T08:11:22;100152.69;;;14.19;100.00
71465;BME280;59274;49.874;9.154;2023-05-11T08:13:48;100150.72;;;14.26;100.00
71465;BME280;59274;49.874;9.154;2023-05-11T08:16:13;100145.94;;;14.37;100.00
71465;BME280;59274;49.874;9.154;2023-05-11T08:18:39;100144.81;;;14.42;100.00
71465;BME280;59274;49.874;9.154;2023-05-11T08:21:04;100147.94;;;14.40;100.00
71465;BME280;59274;49.874;9.154;2023-05-11T08:23:31;100150.22;;;14.49;100.00
71465;BME280;59274;49.874;9.154;2023-05-11T08:25:57;100147.84;;;14.51;100.00
71465;BME280;59274;49.874;9.154;2023-05-11T08:28:22;100152.16;;;14.48;100.00
71465;BME280;59274;49.874;9.154;2023-05-11T08:30:55;100148.59;;;14.55;100.00
71465;BME280;59274;49.874;9.154;2023-05-11T08:33:21;100155.31;;;14.43;100.00
71465;BME280;59274;49.874;9.154;2023-05-11T08:35:47;100154.91;;;14.45;100.00
71465;BME280;59274;49.874;9.154;2023-05-11T08:38:13;100150.22;;;14.49;100.00
71465;BME280;59274;49.874;9.154;2023-05-11T08:40:38;100155.69;;;14.49;100.00
71465;BME280;59274;49.874;9.154;2023-05-11T08:43:14;100150.63;;;14.47;100.00
71465;BME280;59274;49.874;9.154;2023-05-11T08:45:46;100157.13;;;14.64;100.00
71465;BME280;59274;49.874;9.154;2023-05-11T08:48:15;100154.03;;;14.62;100.00
71465;BME280;59274;49.874;9.154;2023-05-11T08:50:45;100151.59;;;14.75;100.00
71465;BME280;59274;49.874;9.154;2023-05-11T08:53:12;100149.19;;;14.80;100.00
71465;BME280;59274;49.874;9.154;2023-05-11T08:55:38;100161.66;;;14.85;100.00
71465;BME280;59274;49.874;9.154;2023-05-11T08:58:05;100160.63;;;15.16;100.00
71465;BME280;59274;49.874;9.154;2023-05-11T09:00:32;100164.22;;;15.06;100.00
71465;BME280;59274;49.874;9.154;2023-05-11T09:02:58;100155.53;;;14.70;100.00
71465;BME280;59274;49.874;9.154;2023-05-11T09:05:24;100162.69;;;15.05;100.00
71465;BME280;59274;49.874;9.154;2023-05-11T09:07:52;100153.97;;;15.17;100.00
71465;BME280;59274;49.874;9.154;2023-05-11T09:10:18;100157.66;;;15.41;100.00
71465;BME280;59274;49.874;9.154;2023-05-11T09:12:44;100156.50;;;15.39;100.00
71465;BME280;59274;49.874;9.154;2023-05-11T09:15:09;100162.56;;;15.60;100.00
71465;BME280;59274;49.874;9.154;2023-05-11T09:17:35;100159.19;;;15.42;96.86
71465;BME280;59274;49.874;9.154;2023-05-11T09:20:05;100159.50;;;15.55;100.00
71465;BME280;59274;49.874;9.154;2023-05-11T09:22:32;100149.72;;;15.54;99.29
71465;BME280;59274;49.874;9.154;2023-05-11T09:25:00;100158.31;;;15.49;98.13
71465;BME280;59274;49.874;9.154;2023-05-11T09:27:26;100153.88;;;15.65;100.00
71465;BME280;59274;49.874;9.154;2023-05-11T09:29:53;100156.91;;;15.75;100.00
71465;BME280;59274;49.874;9.154;2023-05-11T09:32:18;100149.53;;;16.02;100.00
71465;BME280;59274;49.874;9.154;2023-05-11T09:34:44;100153.25;;;16.19;100.00
71465;BME280;59274;49.874;9.154;2023-05-11T09:37:15;100155.88;;;16.26;100.00
71465;BME280;59274;49.874;9.154;2023-05-11T09:39:41;100157.47;;;16.23;96.87
71465;BME280;59274;49.874;9.154;2023-05-11T09:42:25;100159.81;;;16.25;96.64
71465;BME280;59274;49.874;9.154;2023-05-11T09:44:50;100156.34;;;15.90;97.46
71465;BME280;59274;49.874;9.154;2023-05-11T09:47:18;100156.34;;;15.90;97.60
71465;BME280;59274;49.874;9.154;2023-05-11T09:49:45;100159.16;;;16.14;100.00
71465;BME280;59274;49.874;9.154;2023-05-11T09:52:13;100164.88;;;16.26;100.00
71465;BME280;59274;49.874;9.154;2023-05-11T09:54:40;100154.28;;;16.55;100.00
71465;BME280;59274;49.874;9.154;2023-05-11T09:57:21;100151.75;;;16.41;98.00
71465;BME280;59274;49.874;9.154;2023-05-11T09:59:47;100151.38;;;16.39;98.93
71465;BME280;59274;49.874;9.154;2023-05-11T10:02:20;100146.47;;;16.27;100.00
71465;BME280;59274;49.874;9.154;2023-05-11T10:04:50;100146.34;;;16.07;100.00
71465;BME280;59274;49.874;9.154;2023-05-11T10:07:23;100141.63;;;16.08;100.00
71465;BME280;59274;49.874;9.154;2023-05-11T10:09:51;100151.91;;;16.30;100.00
71465;BME280;59274;49.874;9.154;2023-05-11T10:12:19;100154.44;;;16.18;99.82
71465;BME280;59274;49.874;9.154;2023-05-11T10:14:47;100152.00;;;16.23;99.33
71465;BME280;59274;49.874;9.154;2023-05-11T10:17:13;100158.66;;;16.49;97.78
71465;BME280;59274;49.874;9.154;2023-05-11T10:19:39;100155.34;;;16.34;97.34
71465;BME280;59274;49.874;9.154;2023-05-11T10:22:05;100154.50;;;16.41;100.00
71465;BME280;59274;49.874;9.154;2023-05-11T10:24:31;100152.38;;;16.25;97.33
71465;BME280;59274;49.874;9.154;2023-05-11T10:26:57;100153.28;;;16.42;97.73
71465;BME280;59274;49.874;9.154;2023-05-11T10:29:23;100141.59;;;16.68;100.00
71465;BME280;59274;49.874;9.154;2023-05-11T10:31:49;100144.44;;;16.84;99.06
71465;BME280;59274;49.874;9.154;2023-05-11T10:34:16;100136.88;;;16.69;96.51
71465;BME280;59274;49.874;9.154;2023-05-11T10:36:44;100135.13;;;16.78;94.67
71465;BME280;59274;49.874;9.154;2023-05-11T10:39:10;100139.28;;;16.90;95.85
71465;BME280;59274;49.874;9.154;2023-05-11T10:41:46;100148.28;;;16.91;95.99
71465;BME280;59274;49.874;9.154;2023-05-11T10:46:58;100140.94;;;16.30;95.97
71465;BME280;59274;49.874;9.154;2023-05-11T10:49:44;100139.13;;;16.47;99.40
71465;BME280;59274;49.874;9.154;2023-05-11T10:58:07;100134.16;;;16.38;98.41
71465;BME280;59274;49.874;9.154;2023-05-11T11:03:13;100142.75;;;16.40;100.00
71465;BME280;59274;49.874;9.154;2023-05-11T11:05:39;100140.31;;;16.46;100.00
71465;BME280;59274;49.874;9.154;2023-05-11T11:08:05;100134.56;;;16.37;99.73
71465;BME280;59274;49.874;9.154;2023-05-11T11:13:07;100135.84;;;16.29;98.01
71465;BME280;59274;49.874;9.154;2023-05-11T11:18:24;100130.06;;;16.23;100.00
71465;BME280;59274;49.874;9.154;2023-05-11T11:20:52;100132.97;;;16.13;100.00
71465;BME280;59274;49.874;9.154;2023-05-11T11:23:40;100128.81;;;16.01;100.00
71465;BME280;59274;49.874;9.154;2023-05-11T11:26:07;100128.50;;;15.95;100.00
71465;BME280;59274;49.874;9.154;2023-05-11T11:31:22;100120.22;;;15.69;100.00
71465;BME280;59274;49.874;9.154;2023-05-11T11:33:48;100128.22;;;15.49;100.00
71465;BME280;59274;49.874;9.154;2023-05-11T11:36:14;100123.66;;;15.39;100.00
71465;BME280;59274;49.874;9.154;2023-05-11T11:38:56;100127.25;;;15.32;100.00
71465;BME280;59274;49.874;9.154;2023-05-11T11:41:28;100132.91;;;15.11;100.00
71465;BME280;59274;49.874;9.154;2023-05-11T11:43:53;100136.16;;;14.99;100.00
71465;BME280;59274;49.874;9.154;2023-05-11T11:46:27;100130.75;;;14.92;100.00
71465;BME280;59274;49.874;9.154;2023-05-11T11:49:06;100133.06;;;14.93;100.00
71465;BME280;59274;49.874;9.154;2023-05-11T11:51:32;100125.03;;;14.72;100.00
71465;BME280;59274;49.874;9.154;2023-05-11T11:53:58;100127.94;;;14.50;100.00
71465;BME280;59274;49.874;9.154;2023-05-11T12:01:20;100144.28;;;13.85;100.00
71465;BME280;59274;49.874;9.154;2023-05-11T12:03:53;100142.00;;;13.65;100.00
71465;BME280;59274;49.874;9.154;2023-05-11T12:06:24;100130.72;;;13.53;100.00
71465;BME280;59274;49.874;9.154;2023-05-11T12:08:55;100130.38;;;13.47;100.00
71465;BME280;59274;49.874;9.154;2023-05-11T12:11:21;100129.56;;;13.50;100.00
71465;BME280;59274;49.874;9.154;2023-05-11T12:13:47;100133.06;;;13.54;100.00
71465;BME280;59274;49.874;9.154;2023-05-11T12:16:15;100134.97;;;13.68;100.00
71465;BME280;59274;49.874;9.154;2023-05-11T12:18:50;100129.84;;;13.84;100.00
71465;BME280;59274;49.874;9.154;2023-05-11T12:21:20;100128.63;;;13.99;100.00
71465;BME280;59274;49.874;9.154;2023-05-11T12:26:26;100128.91;;;14.19;100.00
71465;BME280;59274;49.874;9.154;2023-05-11T12:29:06;100136.88;;;13.85;100.00
71465;BME280;59274;49.874;9.154;2023-05-11T12:31:36;100124.41;;;13.84;100.00
71465;BME280;59274;49.874;9.154;2023-05-11T12:34:02;100131.34;;;13.96;100.00
71465;BME280;59274;49.874;9.154;2023-05-11T12:36:28;100130.94;;;14.01;100.00
71465;BME280;59274;49.874;9.154;2023-05-11T12:38:54;100132.81;;;14.15;100.00
71465;BME280;59274;49.874;9.154;2023-05-11T12:41:21;100133.53;;;14.26;100.00
71465;BME280;59274;49.874;9.154;2023-05-11T12:43:48;100128.03;;;14.29;100.00
71465;BME280;59274;49.874;9.154;2023-05-11T12:46:14;100130.75;;;14.40;100.00
71465;BME280;59274;49.874;9.154;2023-05-11T12:48:40;100122.94;;;14.42;100.00
71465;BME280;59274;49.874;9.154;2023-05-11T12:51:05;100124.41;;;14.54;100.00
71465;BME280;59274;49.874;9.154;2023-05-11T12:53:34;100122.50;;;14.47;100.00
71465;BME280;59274;49.874;9.154;2023-05-11T12:56:02;100122.34;;;14.65;100.00
71465;BME280;59274;49.874;9.154;2023-05-11T12:58:36;100122.31;;;14.72;100.00
71465;BME280;59274;49.874;9.154;2023-05-11T13:01:03;100119.50;;;14.82;100.00
71465;BME280;59274;49.874;9.154;2023-05-11T13:03:30;100115.59;;;14.80;100.00
71465;BME280;59274;49.874;9.154;2023-05-11T13:06:07;100119.13;;;14.80;100.00
71465;BME280;59274;49.874;9.154;2023-05-11T13:08:37;100117.34;;;15.04;100.00
71465;BME280;59274;49.874;9.154;2023-05-11T13:11:24;100114.97;;;15.06;100.00
71465;BME280;59274;49.874;9.154;2023-05-11T13:13:52;100109.50;;;15.06;100.00
71465;BME280;59274;49.874;9.154;2023-05-11T13:16:29;100103.31;;;15.02;100.00
71465;BME280;59274;49.874;9.154;2023-05-11T13:19:02;100108.38;;;15.00;100.00
71465;BME280;59274;49.874;9.154;2023-05-11T13:21:29;100108.63;;;15.16;100.00
71465;BME280;59274;49.874;9.154;2023-05-11T13:23:55;100102.38;;;15.16;100.00